createdAt,value
2022-08-17T00:02:06.562Z,100881.25
2022-08-17T00:05:28.556Z,100876.16
2022-08-17T00:08:41.984Z,100875.47
2022-08-17T00:12:43.734Z,100874.13
2022-08-17T00:15:10.527Z,100866.59
2022-08-17T00:18:58.401Z,100867.94
2022-08-17T00:22:29.560Z,100865.88
2022-08-17T00:24:58.388Z,100866.53
2022-08-17T00:28:00.154Z,100872.25
2022-08-17T00:31:01.997Z,100870.03
2022-08-17T00:34:06.267Z,100874.03
2022-08-17T00:37:07.821Z,100880.59
2022-08-17T00:40:12.641Z,100882.91
2022-08-17T00:43:19.460Z,100880.69
2022-08-17T00:46:24.753Z,100869.38
2022-08-17T00:49:26.419Z,100872.56
2022-08-17T00:52:36.080Z,100880.09
2022-08-17T00:55:37.717Z,100874.16
2022-08-17T00:58:40.202Z,100877.19
2022-08-17T01:01:42.372Z,100882.72
2022-08-17T01:04:47.128Z,100878.34
2022-08-17T01:07:50.978Z,100884.91
2022-08-17T01:10:58.196Z,100880.66
2022-08-17T01:14:04.093Z,100878.28
2022-08-17T01:17:07.052Z,100879.44
2022-08-17T01:20:09.293Z,100869.06
2022-08-17T01:23:10.953Z,100876.91
2022-08-17T01:26:18.285Z,100885.47
2022-08-17T01:29:21.662Z,100874.16
2022-08-17T01:32:23.521Z,100876.59
2022-08-17T01:35:25.234Z,100882.63
2022-08-17T01:38:31.652Z,100869.44
2022-08-17T01:41:34.745Z,100877.16
2022-08-17T01:44:36.806Z,100876.06
2022-08-17T01:47:41.773Z,100878.66
2022-08-17T01:50:45.437Z,100871.91
2022-08-17T01:53:52.735Z,100874.88
2022-08-17T01:56:54.310Z,100872.78
2022-08-17T01:59:55.877Z,100873.25
2022-08-17T02:02:57.490Z,100876.34
2022-08-17T02:05:59.071Z,100858.81
2022-08-17T02:12:05.853Z,100865.94
2022-08-17T02:15:27.644Z,100861.97
2022-08-17T02:18:30.187Z,100863.28
2022-08-17T02:21:32.454Z,100856.50
2022-08-17T02:25:00.187Z,100850.41
2022-08-17T02:27:59.908Z,100849.00
2022-08-17T02:31:11.121Z,100848.44
2022-08-17T02:34:12.838Z,100858.69
2022-08-17T02:37:17.593Z,100858.97
2022-08-17T02:40:28.606Z,100852.19
2022-08-17T02:43:38.116Z,100851.34
2022-08-17T02:46:39.696Z,100851.34
2022-08-17T02:49:42.069Z,100844.25
2022-08-17T02:53:01.828Z,100856.16
2022-08-17T02:56:04.482Z,100848.53
2022-08-17T02:59:06.163Z,100848.81
2022-08-17T03:02:10.633Z,100849.16
2022-08-17T03:05:15.588Z,100843.03
2022-08-17T03:08:18.034Z,100849.44
2022-08-17T03:11:19.593Z,100847.59
2022-08-17T03:14:21.508Z,100852.13
2022-08-17T03:17:27.874Z,100843.34
2022-08-17T03:20:31.751Z,100835.41
2022-08-17T03:23:33.764Z,100835.41
2022-08-17T03:26:35.483Z,100840.66
2022-08-17T03:29:37.110Z,100844.91
2022-08-17T03:32:41.101Z,100853.09
2022-08-17T03:35:42.760Z,100850.41
2022-08-17T03:38:44.318Z,100851.09
2022-08-17T03:41:46.681Z,100847.16
2022-08-17T03:44:52.829Z,100844.28
2022-08-17T03:48:17.645Z,100842.47
2022-08-17T03:51:43.080Z,100845.31
2022-08-17T03:55:03.798Z,100851.84
2022-08-17T03:58:05.490Z,100851.69
2022-08-17T04:01:07.415Z,100854.94
2022-08-17T04:04:09.132Z,100855.47
2022-08-17T04:07:10.876Z,100857.88
2022-08-17T04:10:14.134Z,100866.66
2022-08-17T04:13:16.273Z,100861.25
2022-08-17T04:16:26.550Z,100860.13
2022-08-17T04:19:28.143Z,100860.41
2022-08-17T04:22:33.849Z,100852.50
2022-08-17T04:25:38.537Z,100861.56
2022-08-17T04:28:43.096Z,100864.13
2022-08-17T04:31:44.832Z,100854.50
2022-08-17T04:34:46.436Z,100856.44
2022-08-17T04:37:48.344Z,100857.63
2022-08-17T04:41:09.929Z,100859.47
2022-08-17T04:44:12.030Z,100852.25
2022-08-17T04:47:14.076Z,100861.13
2022-08-17T04:50:15.643Z,100868.22
2022-08-17T04:53:18.537Z,100870.94
2022-08-17T04:56:20.315Z,100872.94
2022-08-17T04:59:22.636Z,100873.22
2022-08-17T05:02:24.225Z,100877.91
2022-08-17T05:05:32.365Z,100875.22
2022-08-17T05:08:34.240Z,100877.03
2022-08-17T05:11:36.465Z,100887.97
2022-08-17T05:14:39.600Z,100884.25
2022-08-17T05:17:41.168Z,100891.34
2022-08-17T05:20:44.177Z,100898.41
2022-08-17T05:23:49.194Z,100894.16
2022-08-17T05:26:56.629Z,100897.16
2022-08-17T05:29:58.171Z,100899.16
2022-08-17T05:33:05.537Z,100903.34
2022-08-17T05:36:09.895Z,100901.19
2022-08-17T05:39:32.073Z,100907.31
2022-08-17T05:42:33.700Z,100900.31
2022-08-17T05:45:55.755Z,100914.63
2022-08-17T05:49:05.832Z,100908.41
2022-08-17T05:52:07.497Z,100909.88
2022-08-17T05:55:35.636Z,100912.03
2022-08-17T05:59:12.630Z,100915.03
2022-08-17T06:02:32.424Z,100909.22
2022-08-17T06:06:11.436Z,100903.81
2022-08-17T06:09:17.911Z,100909.50
2022-08-17T06:12:41.125Z,100899.94
2022-08-17T06:15:49.483Z,100898.06
2022-08-17T06:19:06.565Z,100906.88
2022-08-17T06:22:12.676Z,100905.84
2022-08-17T06:25:18.085Z,100906.88
2022-08-17T06:28:38.023Z,100902.78
2022-08-17T06:31:40.849Z,100907.47
2022-08-17T06:34:44.969Z,100901.47
2022-08-17T06:38:01.542Z,100906.41
2022-08-17T06:41:38.448Z,100903.53
2022-08-17T06:44:51.186Z,100905.38
2022-08-17T06:48:00.031Z,100904.38
2022-08-17T06:51:14.938Z,100901.53
2022-08-17T06:54:36.752Z,100903.31
2022-08-17T06:57:45.256Z,100900.81
2022-08-17T07:00:48.924Z,100902.19
2022-08-17T07:03:54.785Z,100907.81
2022-08-17T07:07:30.069Z,100905.81
2022-08-17T07:10:38.166Z,100908.34
2022-08-17T07:14:17.323Z,100914.97
2022-08-17T07:17:21.537Z,100907.91
2022-08-17T07:20:50.445Z,100907.97
2022-08-17T07:24:00.697Z,100908.28
2022-08-17T07:27:23.279Z,100906.66
2022-08-17T07:30:50.337Z,100914.00
2022-08-17T07:34:06.818Z,100914.72
2022-08-17T07:37:08.422Z,100920.38
2022-08-17T07:40:28.718Z,100923.50
2022-08-17T07:43:31.079Z,100916.41
2022-08-17T07:46:53.832Z,100918.63
2022-08-17T07:49:55.458Z,100920.81
2022-08-17T07:52:59.202Z,100923.56
2022-08-17T07:56:00.924Z,100927.28
2022-08-17T07:59:21.844Z,100928.47
2022-08-17T08:02:41.332Z,100932.03
2022-08-17T08:05:50.956Z,100923.94
2022-08-17T08:08:55.962Z,100922.94
2022-08-17T08:11:57.563Z,100924.47
2022-08-17T08:15:01.221Z,100927.00
2022-08-17T08:18:06.243Z,100941.22
2022-08-17T08:21:20.629Z,100935.47
2022-08-17T08:24:59.837Z,100935.13
2022-08-17T08:28:43.531Z,100934.59
2022-08-17T08:31:50.925Z,100932.38
2022-08-17T08:35:17.439Z,100932.34
2022-08-17T08:38:53.750Z,100925.34
2022-08-17T08:41:55.429Z,100921.91
2022-08-17T08:45:26.232Z,100923.06
2022-08-17T08:48:53.344Z,100921.81
2022-08-17T08:52:01.750Z,100924.13
2022-08-17T08:55:15.437Z,100928.94
2022-08-17T08:58:31.691Z,100922.13
2022-08-17T09:01:56.982Z,100931.16
2022-08-17T09:05:20.210Z,100938.19
2022-08-17T09:08:46.446Z,100931.09
2022-08-17T09:12:02.873Z,100932.19
2022-08-17T09:15:32.106Z,100936.13
2022-08-17T09:19:01.747Z,100946.22
2022-08-17T09:22:17.548Z,100940.34
2022-08-17T09:25:28.989Z,100939.50
2022-08-17T09:28:36.362Z,100933.41
2022-08-17T09:31:48.878Z,100932.38
2022-08-17T09:34:54.931Z,100945.78
2022-08-17T09:38:41.728Z,100946.41
2022-08-17T09:41:51.932Z,100943.38
2022-08-17T09:45:21.680Z,100948.06
2022-08-17T09:48:29.045Z,100939.94
2022-08-17T09:51:45.621Z,100933.84
2022-08-17T09:54:51.013Z,100938.97
2022-08-17T09:58:09.836Z,100938.66
2022-08-17T10:01:36.464Z,100934.09
2022-08-17T10:05:09.734Z,100940.66
2022-08-17T10:08:17.107Z,100944.47
2022-08-17T10:11:48.149Z,100939.28
2022-08-17T10:15:08.145Z,100932.66
2022-08-17T10:18:34.957Z,100925.66
2022-08-17T10:22:00.841Z,100921.56
2022-08-17T10:25:33.446Z,100921.50
2022-08-17T10:29:12.770Z,100915.38
2022-08-17T10:32:28.297Z,100919.22
2022-08-17T10:35:45.456Z,100917.19
2022-08-17T10:38:49.983Z,100916.81
2022-08-17T10:41:57.933Z,100924.00
2022-08-17T10:45:15.471Z,100925.91
2022-08-17T10:48:51.550Z,100929.69
2022-08-17T10:51:56.721Z,100918.56
2022-08-17T10:55:01.571Z,100916.06
2022-08-17T10:58:22.145Z,100913.94
2022-08-17T11:01:33.012Z,100909.78
2022-08-17T11:04:58.919Z,100907.66
2022-08-17T11:08:12.742Z,100919.03
2022-08-17T11:11:51.031Z,100908.78
2022-08-17T11:14:55.529Z,100910.03
2022-08-17T11:18:01.618Z,100901.41
2022-08-17T11:21:32.230Z,100895.53
2022-08-17T11:24:38.801Z,100894.03
2022-08-17T11:27:44.010Z,100885.84
2022-08-17T11:30:54.094Z,100884.97
2022-08-17T11:34:02.453Z,100883.53
2022-08-17T11:37:40.216Z,100887.09
2022-08-17T11:40:58.577Z,100888.16
2022-08-17T11:44:24.552Z,100891.09
2022-08-17T11:48:27.060Z,100883.50
2022-08-17T11:51:55.912Z,100881.16
2022-08-17T11:55:17.696Z,100883.28
2022-08-17T11:58:30.608Z,100881.59
2022-08-17T12:01:32.212Z,100886.22
2022-08-17T12:04:35.959Z,100880.94
2022-08-17T12:07:43.337Z,100884.31
2022-08-17T12:10:55.978Z,100882.84
2022-08-17T12:13:59.553Z,100899.03
2022-08-17T12:17:12.669Z,100904.94
2022-08-17T12:20:29.896Z,100903.28
2022-08-17T12:23:48.277Z,100899.28
2022-08-17T12:26:56.465Z,100907.88
2022-08-17T12:29:59.317Z,100898.41
2022-08-17T12:33:01.056Z,100890.19
2022-08-17T12:36:07.486Z,100874.34
2022-08-17T12:39:13.012Z,100867.59
2022-08-17T12:42:31.163Z,100856.66
2022-08-17T12:45:41.972Z,100845.75
2022-08-17T12:48:58.725Z,100834.63
2022-08-17T12:52:19.677Z,100835.72
2022-08-17T12:55:26.305Z,100826.09
2022-08-17T12:58:44.638Z,100825.06
2022-08-17T13:01:46.621Z,100827.81
2022-08-17T13:04:49.275Z,100826.75
2022-08-17T13:07:53.468Z,100838.56
2022-08-17T13:11:01.323Z,100836.22
2022-08-17T13:14:11.937Z,100838.50
2022-08-17T13:17:26.397Z,100842.91
2022-08-17T13:20:28.172Z,100841.44
2022-08-17T13:23:32.441Z,100840.38
2022-08-17T13:26:43.083Z,100848.56
2022-08-17T13:29:44.770Z,100856.31
2022-08-17T13:32:48.326Z,100860.91
2022-08-17T13:35:51.660Z,100873.50
2022-08-17T13:39:07.781Z,100881.09
2022-08-17T13:42:33.077Z,100875.44
2022-08-17T13:45:43.518Z,100874.81
2022-08-17T13:48:56.867Z,100878.19
2022-08-17T13:51:58.733Z,100866.88
2022-08-17T13:55:10.097Z,100860.34
2022-08-17T13:58:11.949Z,100857.44
2022-08-17T14:01:37.074Z,100856.34
2022-08-17T14:04:41.127Z,100851.72
2022-08-17T14:07:43.028Z,100847.94
2022-08-17T14:10:49.668Z,100838.66
2022-08-17T14:13:51.285Z,100836.59
2022-08-17T14:16:53.865Z,100827.91
2022-08-17T14:19:55.989Z,100834.84
2022-08-17T14:22:58.172Z,100825.19
2022-08-17T14:25:59.973Z,100823.88
2022-08-17T14:29:01.866Z,100817.25
2022-08-17T14:32:31.368Z,100817.25
2022-08-17T14:35:33.066Z,100813.63
2022-08-17T14:38:35.821Z,100810.19
2022-08-17T14:41:39.054Z,100808.91
2022-08-17T14:44:40.976Z,100805.78
2022-08-17T14:47:42.703Z,100804.56
2022-08-17T14:50:46.177Z,100797.66
2022-08-17T14:53:49.076Z,100787.56
2022-08-17T14:56:56.988Z,100786.13
2022-08-17T15:00:13.288Z,100778.34
2022-08-17T15:03:16.487Z,100775.84
2022-08-17T15:06:18.072Z,100761.78
2022-08-17T15:09:19.917Z,100765.41
2022-08-17T15:12:26.426Z,100768.38
2022-08-17T15:15:34.480Z,100771.59
2022-08-17T15:18:36.716Z,100778.53
2022-08-17T15:21:38.417Z,100780.00
2022-08-17T15:24:40.074Z,100790.31
2022-08-17T15:27:42.262Z,100790.31
2022-08-17T15:30:45.089Z,100785.88
2022-08-17T15:33:46.798Z,100778.75
2022-08-17T15:36:49.381Z,100771.81
2022-08-17T15:39:51.578Z,100779.81
2022-08-17T15:42:53.514Z,100765.34
2022-08-17T15:46:04.529Z,100768.06
2022-08-17T15:49:06.308Z,100762.84
2022-08-17T15:52:20.280Z,100754.66
2022-08-17T15:55:24.166Z,100759.50
2022-08-17T15:58:29.858Z,100758.41
2022-08-17T16:02:54.741Z,100762.41
2022-08-17T16:05:10.400Z,100761.78
2022-08-17T16:08:13.916Z,100760.13
2022-08-17T16:11:18.834Z,100752.97
2022-08-17T16:14:20.437Z,100748.34
2022-08-17T16:17:38.523Z,100741.41
2022-08-17T16:20:42.708Z,100739.09
2022-08-17T16:23:44.377Z,100734.06
2022-08-17T16:26:45.933Z,100729.00
2022-08-17T16:29:49.773Z,100734.06
2022-08-17T16:33:00.421Z,100737.44
2022-08-17T16:36:02.021Z,100745.81
2022-08-17T16:39:04.758Z,100746.91
2022-08-17T16:42:25.372Z,100752.78
2022-08-17T16:45:29.448Z,100754.69
2022-08-17T16:48:31.200Z,100756.34
2022-08-17T16:51:32.804Z,100769.75
2022-08-17T16:54:35.459Z,100770.78
2022-08-17T16:57:47.263Z,100776.84
2022-08-17T17:00:52.284Z,100780.19
2022-08-17T17:03:58.440Z,100784.78
2022-08-17T17:07:07.149Z,100794.81
2022-08-17T17:10:12.505Z,100793.09
2022-08-17T17:13:54.146Z,100783.19
2022-08-17T17:17:12.705Z,100770.75
2022-08-17T17:20:24.260Z,100763.59
2022-08-17T17:23:42.739Z,100767.34
2022-08-17T17:26:56.484Z,100754.94
2022-08-17T17:30:21.642Z,100759.72
2022-08-17T17:33:36.214Z,100762.34
2022-08-17T17:37:08.698Z,100758.38
2022-08-17T17:40:41.996Z,100744.91
2022-08-17T17:43:43.594Z,100754.16
2022-08-17T17:46:52.177Z,100762.09
2022-08-17T17:49:53.914Z,100780.06
2022-08-17T17:53:09.599Z,100789.44
2022-08-17T17:56:43.588Z,100798.25
2022-08-17T17:59:50.775Z,100804.03
2022-08-17T18:02:58.239Z,100808.41
2022-08-17T18:06:12.731Z,100804.22
2022-08-17T18:10:05.429Z,100795.41
2022-08-17T18:13:47.152Z,100790.66
2022-08-17T18:16:55.894Z,100790.78
2022-08-17T18:19:57.521Z,100792.56
2022-08-17T18:22:59.182Z,100798.78
2022-08-17T18:26:02.041Z,100815.78
2022-08-17T18:29:34.608Z,100818.78
2022-08-17T18:32:38.387Z,100830.97
2022-08-17T18:35:58.745Z,100836.50
2022-08-17T18:39:27.101Z,100836.56
2022-08-17T18:42:29.567Z,100833.28
2022-08-17T18:46:28.003Z,100831.84
2022-08-17T18:49:30.702Z,100834.13
2022-08-17T18:52:33.790Z,100828.22
2022-08-17T18:55:35.460Z,100827.97
2022-08-17T18:58:39.886Z,100831.97
2022-08-17T19:01:59.982Z,100822.56
2022-08-17T19:05:09.195Z,100816.72
2022-08-17T19:08:29.208Z,100823.88
2022-08-17T19:11:34.228Z,100833.78
2022-08-17T19:14:36.679Z,100846.19
2022-08-17T19:17:43.661Z,100844.03
2022-08-17T19:21:06.027Z,100849.94
2022-08-17T19:24:26.381Z,100842.22
2022-08-17T19:28:04.293Z,100824.13
2022-08-17T19:31:27.407Z,100818.94
2022-08-17T19:34:33.972Z,100814.09
2022-08-17T19:38:13.305Z,100811.69
2022-08-17T19:41:28.371Z,100806.97
2022-08-17T19:44:35.944Z,100799.47
2022-08-17T19:47:55.120Z,100800.06
2022-08-17T19:51:09.593Z,100796.75
2022-08-17T19:54:15.144Z,100797.41
2022-08-17T19:57:40.757Z,100806.53
2022-08-17T20:00:50.060Z,100812.94
2022-08-17T20:04:07.032Z,100817.59
2022-08-17T20:07:43.576Z,100808.75
2022-08-17T20:11:08.813Z,100822.13
2022-08-17T20:14:18.776Z,100833.47
2022-08-17T20:17:21.724Z,100846.00
2022-08-17T20:20:55.736Z,100849.41
2022-08-17T20:24:21.269Z,100849.41
2022-08-17T20:27:32.219Z,100847.78
2022-08-17T20:30:38.039Z,100848.31
2022-08-17T20:33:39.749Z,100852.91
2022-08-17T20:36:57.452Z,100863.75
2022-08-17T20:39:58.986Z,100874.81
2022-08-17T20:43:35.704Z,100873.84
2022-08-17T20:46:37.610Z,100870.34
2022-08-17T20:49:44.991Z,100861.53
2022-08-17T20:52:51.779Z,100870.69
2022-08-17T20:55:55.606Z,100864.25
2022-08-17T20:58:59.042Z,100868.66
2022-08-17T21:02:17.733Z,100864.25
2022-08-17T21:06:00.032Z,100877.16
2022-08-17T21:09:16.276Z,100875.44
2022-08-17T21:12:41.913Z,100872.94
2022-08-17T21:15:55.802Z,100870.75
2022-08-17T21:19:17.972Z,100865.03
2022-08-17T21:22:31.794Z,100863.69
2022-08-17T21:26:03.264Z,100878.63
2022-08-17T21:29:30.064Z,100872.66
2022-08-17T21:32:36.076Z,100881.84
2022-08-17T21:35:58.666Z,100867.25
2022-08-17T21:39:06.455Z,100872.66
2022-08-17T21:42:09.409Z,100873.72
2022-08-17T21:45:20.714Z,100867.63
2022-08-17T21:48:24.970Z,100865.06
2022-08-17T21:51:28.976Z,100867.13
2022-08-17T21:54:36.882Z,100880.38
2022-08-17T21:57:41.901Z,100878.53
2022-08-17T22:01:24.638Z,100888.22
2022-08-17T22:04:29.583Z,100877.06
2022-08-17T22:07:47.592Z,100894.19
2022-08-17T22:10:51.217Z,100884.84
2022-08-17T22:14:00.712Z,100890.25
2022-08-17T22:17:26.356Z,100872.34
2022-08-17T22:20:28.401Z,100871.94
2022-08-17T22:23:56.749Z,100869.47
2022-08-17T22:27:07.626Z,100869.03
2022-08-17T22:30:25.645Z,100860.25
2022-08-17T22:33:37.008Z,100854.88
2022-08-17T22:36:40.480Z,100870.84
2022-08-17T22:39:42.172Z,100872.84
2022-08-17T22:42:49.942Z,100865.22
2022-08-17T22:45:58.990Z,100863.53
2022-08-17T22:49:00.741Z,100862.31
2022-08-17T22:52:07.313Z,100864.69
2022-08-17T22:55:35.645Z,100871.28
2022-08-17T22:59:02.898Z,100873.97
2022-08-17T23:02:13.745Z,100880.91
2022-08-17T23:05:16.778Z,100878.78
2022-08-17T23:08:21.287Z,100879.94
2022-08-17T23:11:36.811Z,100872.31
2022-08-17T23:14:57.451Z,100869.41
2022-08-17T23:18:04.685Z,100868.06
2022-08-17T23:21:07.697Z,100862.13
2022-08-17T23:24:09.963Z,100864.63
2022-08-17T23:27:12.353Z,100855.31
2022-08-17T23:30:13.996Z,100859.50
2022-08-17T23:33:24.219Z,100859.50
2022-08-17T23:36:27.090Z,100853.78
2022-08-17T23:39:28.933Z,100846.16
2022-08-17T23:42:30.588Z,100848.94
2022-08-17T23:45:32.273Z,100850.06
2022-08-17T23:48:36.628Z,100836.50
2022-08-17T23:51:43.992Z,100845.22
2022-08-17T23:54:47.770Z,100841.31
2022-08-17T23:57:50.014Z,100840.94
